Time;durP1;ratioP1;P1;durP2;ratioP2;P2;SDS_P1;SDS_P2;PMS_P1;PMS_P2;Temp;Humidity;BMP_temperature;BMP_pressure;BME280_temperature;BME280_humidity;BME280_pressure;Samples;Min_cycle;Max_cycle;Signal;HPM_P1;HPM_P2
2021/04/18 00:03:55;;;;;;;54.00;26.17;;;;;;;13.42;79.79;99332.18;4329855;81;28691;-82
2021/04/18 00:09:58;;;;;;;55.43;25.92;;;;;;;13.39;79.87;99326.72;4230284;83;28635;-80
2021/04/18 00:16:00;;;;;;;53.63;25.20;;;;;;;13.30;81.17;99324.95;4343007;81;28552;-80
2021/04/18 00:22:03;;;;;;;49.08;24.25;;;;;;;13.47;78.77;99321.48;4343181;81;28558;-81
2021/04/18 00:28:05;;;;;;;52.78;25.45;;;;;;;13.48;79.40;99324.47;4340766;81;28614;-81
2021/04/18 00:34:07;;;;;;;56.18;27.80;;;;;;;13.31;81.15;99324.41;4334902;81;28583;-81
2021/04/18 00:40:14;;;;;;;56.83;27.25;;;;;;;13.13;82.77;99320.03;4341550;81;28598;-81
2021/04/18 00:46:16;;;;;;;55.28;24.12;;;;;;;13.13;82.82;99317.34;4355600;81;28614;-80
2021/04/18 00:52:19;;;;;;;51.50;24.45;;;;;;;12.99;84.40;99310.88;4327796;82;28955;-81
2021/04/18 00:58:21;;;;;;;50.20;24.15;;;;;;;12.97;84.14;99320.56;4305956;82;28614;-81
2021/04/18 01:04:23;;;;;;;55.75;26.12;;;;;;;13.03;83.22;99316.08;4340458;80;28576;-81
2021/04/18 01:10:26;;;;;;;55.55;25.80;;;;;;;13.35;79.92;99316.13;4329011;82;28648;-81
2021/04/18 01:16:28;;;;;;;54.40;26.68;;;;;;;13.02;83.10;99311.74;4344250;81;28657;-84
2021/04/18 01:22:31;;;;;;;52.23;24.67;;;;;;;13.04;83.00;99309.62;4337616;82;28649;-81
2021/04/18 01:28:35;;;;;;;53.70;24.27;;;;;;;12.90;84.30;99309.08;4342195;81;28616;-80
2021/04/18 01:34:42;;;;;;;51.42;23.67;;;;;;;12.83;85.59;99312.46;4341668;82;28614;-81
2021/04/18 01:40:45;;;;;;;56.48;26.80;;;;;;;12.91;85.24;99316.66;4342407;82;28613;-82
2021/04/18 01:46:47;;;;;;;58.98;26.65;;;;;;;13.32;79.29;99317.95;4332081;82;28600;-82
2021/04/18 01:52:49;;;;;;;50.40;23.60;;;;;;;13.36;79.03;99310.47;4343666;81;28655;-82
2021/04/18 01:58:54;;;;;;;45.43;22.17;;;;;;;13.09;82.96;99310.25;4342828;82;28633;-82
2021/04/18 02:05:16;;;;;;;49.30;23.00;;;;;;;13.46;78.60;99304.47;4337465;82;28581;-83
2021/04/18 02:11:19;;;;;;;54.00;24.87;;;;;;;13.24;80.47;99305.15;4338324;81;28652;-82
2021/04/18 02:17:22;;;;;;;59.27;26.77;;;;;;;13.21;81.07;99305.61;4330315;82;28593;-81
2021/04/18 02:23:25;;;;;;;52.80;25.77;;;;;;;13.03;83.39;99292.34;4347461;82;28580;-82
2021/04/18 02:29:28;;;;;;;55.17;25.00;;;;;;;13.18;81.63;99288.55;4347675;82;28649;-81
2021/04/18 02:35:32;;;;;;;52.15;26.17;;;;;;;13.08;82.93;99291.90;4343528;81;28610;-81
2021/04/18 02:41:35;;;;;;;54.30;24.67;;;;;;;13.25;81.25;99295.98;4338959;81;28596;-83
2021/04/18 02:47:38;;;;;;;61.75;28.30;;;;;;;13.48;78.92;99294.24;4244023;82;28581;-83
2021/04/18 02:53:40;;;;;;;60.40;27.07;;;;;;;13.09;82.84;99287.30;4269274;83;28601;-83
2021/04/18 02:59:44;;;;;;;59.38;27.58;;;;;;;13.05;83.19;99276.71;4257238;83;28584;-80
2021/04/18 03:05:48;;;;;;;53.95;25.37;;;;;;;13.62;76.26;99277.19;4258244;83;28601;-80
2021/04/18 03:11:50;;;;;;;56.75;26.02;;;;;;;13.37;77.91;99270.80;4294617;83;28681;-81
2021/04/18 03:18:03;;;;;;;58.17;27.50;;;;;;;13.29;79.95;99261.73;4482436;79;85344;-81
2021/04/18 03:24:07;;;;;;;55.78;26.73;;;;;;;13.27;80.02;99256.56;4320959;81;28619;-81
2021/04/18 03:30:12;;;;;;;46.75;22.90;;;;;;;13.36;79.79;99254.31;4268380;81;28598;-83
2021/04/18 03:36:16;;;;;;;52.03;23.77;;;;;;;13.23;81.42;99253.56;4324035;80;28610;-82
2021/04/18 03:42:18;;;;;;;49.48;23.27;;;;;;;12.96;83.72;99256.02;4254226;81;28612;-80
2021/04/18 03:48:22;;;;;;;53.58;24.92;;;;;;;13.17;81.63;99253.69;4327184;81;28615;-80
2021/04/18 03:54:25;;;;;;;54.80;24.82;;;;;;;13.21;80.90;99258.36;4323182;81;28571;-82
2021/04/18 04:00:27;;;;;;;56.73;25.17;;;;;;;13.12;82.19;99259.84;4309565;81;28693;-82
2021/04/18 04:06:31;;;;;;;49.55;22.55;;;;;;;13.16;82.23;99261.50;4405482;80;28605;-81
2021/04/18 04:12:35;;;;;;;52.98;24.15;;;;;;;13.06;83.35;99262.95;4424993;80;28616;-82
2021/04/18 04:18:38;;;;;;;48.73;23.75;;;;;;;13.51;78.33;99265.94;4270420;81;28670;-82
2021/04/18 04:24:59;;;;;;;54.65;26.15;;;;;;;13.00;84.08;99265.28;4265311;81;28608;-83
2021/04/18 04:31:02;;;;;;;58.65;25.48;;;;;;;13.78;75.89;99266.09;4325778;80;28599;-78
2021/04/18 04:37:04;;;;;;;55.73;24.57;;;;;;;13.38;80.28;99268.38;4263813;81;28568;-79
2021/04/18 04:43:07;;;;;;;48.87;22.27;;;;;;;13.54;78.56;99269.48;4316889;81;28641;-82
2021/04/18 04:49:09;;;;;;;55.10;24.70;;;;;;;13.90;75.95;99272.77;4312662;81;28956;-82
2021/04/18 04:55:13;;;;;;;61.35;26.95;;;;;;;13.83;75.82;99263.17;4346898;81;28612;-91
2021/04/18 05:01:15;;;;;;;76.37;29.05;;;;;;;13.70;77.03;99263.80;4297252;83;28592;-92
2021/04/18 05:07:17;;;;;;;74.30;27.45;;;;;;;13.81;76.48;99271.54;4245701;84;28584;-92
2021/04/18 05:13:19;;;;;;;65.52;24.87;;;;;;;13.93;74.24;99268.20;4330765;81;28572;-92
2021/04/18 05:19:21;;;;;;;65.85;26.30;;;;;;;14.29;70.77;99258.95;4292836;83;28681;-92
2021/04/18 05:25:24;;;;;;;66.90;26.75;;;;;;;13.96;73.64;99276.36;4319597;81;28637;-91
2021/04/18 05:31:26;;;;;;;56.15;23.07;;;;;;;14.21;72.55;99272.38;4221133;83;28608;-92
2021/04/18 05:37:29;;;;;;;55.23;22.93;;;;;;;14.26;71.75;99282.44;4311531;81;28629;-91
2021/04/18 05:43:31;;;;;;;51.50;22.55;;;;;;;14.43;69.96;99282.39;4220615;83;28577;-92
2021/04/18 05:49:35;;;;;;;53.50;23.55;;;;;;;13.96;74.48;99276.87;4290346;82;28603;-90
2021/04/18 05:55:37;;;;;;;53.00;24.40;;;;;;;13.77;77.53;99284.72;4328213;81;29006;-91
2021/04/18 06:01:40;;;;;;;50.33;21.75;;;;;;;13.86;74.81;99287.02;4269980;83;28625;-91
2021/04/18 06:07:43;;;;;;;47.48;20.92;;;;;;;14.57;69.61;99278.78;4298311;83;28620;-91
2021/04/18 06:13:45;;;;;;;46.40;21.60;;;;;;;14.35;72.07;99288.51;4224468;84;28641;-92
2021/04/18 06:19:47;;;;;;;43.08;19.75;;;;;;;14.33;73.14;99293.91;4296228;82;28628;-91
2021/04/18 06:25:49;;;;;;;34.70;16.07;;;;;;;14.71;67.27;99298.17;4305531;82;28947;-93
2021/04/18 06:31:52;;;;;;;34.23;15.53;;;;;;;14.36;69.75;99304.22;4185240;85;28607;-91
2021/04/18 06:37:54;;;;;;;36.85;18.02;;;;;;;15.08;65.21;99287.24;4332642;82;28608;-92
2021/04/18 06:43:56;;;;;;;33.50;17.65;;;;;;;15.50;61.76;99292.50;4197034;84;28573;-91
2021/04/18 06:50:00;;;;;;;33.90;16.05;;;;;;;15.58;61.01;99294.22;4266016;81;28603;-90
2021/04/18 06:56:05;;;;;;;29.55;15.38;;;;;;;15.18;63.11;99294.92;4311524;81;28674;-89
2021/04/18 07:02:22;;;;;;;29.40;14.20;;;;;;;15.48;63.38;99302.27;4211882;84;28695;-91
2021/04/18 07:08:29;;;;;;;35.28;16.12;;;;;;;15.21;62.05;99299.02;4284052;81;28574;-84
2021/04/18 07:14:34;;;;;;;35.00;18.10;;;;;;;15.41;60.57;99305.70;4302049;80;28635;-83
2021/04/18 07:20:52;;;;;;;31.50;16.00;;;;;;;14.86;64.77;99319.22;4344811;81;28578;-84
2021/04/18 07:27:05;;;;;;;31.07;15.08;;;;;;;14.70;64.01;99308.16;4329442;81;28639;-82
2021/04/18 07:33:08;;;;;;;28.50;14.07;;;;;;;14.97;61.83;99316.91;4332484;81;28583;-82
2021/04/18 07:39:14;;;;;;;27.37;13.75;;;;;;;16.67;54.27;99317.19;4365923;81;28630;-84
2021/04/18 07:45:18;;;;;;;34.67;16.80;;;;;;;16.72;52.59;99313.13;4337143;81;28642;-84
2021/04/18 07:51:22;;;;;;;37.05;17.12;;;;;;;16.77;52.98;99314.52;4363337;81;28652;-83
2021/04/18 07:57:24;;;;;;;34.45;16.80;;;;;;;17.03;50.65;99311.10;4376520;81;28577;-83
2021/04/18 08:03:26;;;;;;;31.17;15.23;;;;;;;17.34;50.29;99314.69;4347585;81;28587;-84
2021/04/18 08:09:29;;;;;;;32.35;16.42;;;;;;;17.86;48.40;99319.33;4348092;81;28628;-83
2021/04/18 08:15:33;;;;;;;37.40;18.25;;;;;;;18.42;46.83;99307.56;4339296;79;28611;-86
2021/04/18 08:21:39;;;;;;;38.08;19.62;;;;;;;18.34;46.44;99306.80;4260577;81;28592;-85
2021/04/18 08:28:05;;;;;;;34.05;16.60;;;;;;;18.50;45.09;99307.56;4286800;81;28598;-86
2021/04/18 08:34:11;;;;;;;30.37;15.58;;;;;;;19.11;43.44;99302.14;4320452;80;28595;-86
2021/04/18 08:40:14;;;;;;;28.23;14.75;;;;;;;18.68;43.57;99305.56;4216121;82;28581;-84
2021/04/18 08:46:21;;;;;;;29.90;15.40;;;;;;;19.14;43.35;99300.20;4328016;80;28592;-88
2021/04/18 08:52:28;;;;;;;27.67;14.03;;;;;;;19.50;41.79;99299.41;4322115;80;28603;-89
2021/04/18 08:58:38;;;;;;;25.68;14.00;;;;;;;19.99;40.66;99290.03;4307905;80;28603;-87
2021/04/18 09:04:45;;;;;;;30.48;16.10;;;;;;;20.43;40.41;99282.75;4230022;81;28645;-86
2021/04/18 09:11:06;;;;;;;28.90;15.23;;;;;;;19.62;41.05;99275.88;4323345;80;28601;-82
2021/04/18 09:17:24;;;;;;;22.85;13.08;;;;;;;18.77;42.22;99287.30;4249369;82;28624;-81
2021/04/18 09:23:26;;;;;;;25.77;13.25;;;;;;;20.12;38.95;99276.27;4317391;80;28637;-90
2021/04/18 09:29:29;;;;;;;21.10;11.28;;;;;;;20.59;37.82;99261.53;4234536;83;28643;-87
2021/04/18 09:35:31;;;;;;;18.82;10.65;;;;;;;20.62;37.01;99265.03;4310663;82;28570;-87
2021/04/18 09:41:36;;;;;;;19.20;11.10;;;;;;;21.16;36.21;99253.94;4285881;82;28628;-86
2021/04/18 09:47:38;;;;;;;19.95;11.28;;;;;;;21.12;35.76;99251.55;4237506;83;28607;-86
2021/04/18 09:53:43;;;;;;;20.68;11.28;;;;;;;20.78;36.26;99251.19;4319607;82;28655;-89
2021/04/18 10:00:08;;;;;;;22.75;11.97;;;;;;;20.62;35.88;99258.78;4255591;81;28616;-89
2021/04/18 10:06:10;;;;;;;19.70;11.47;;;;;;;20.87;35.04;99254.09;4319717;82;28597;-90
2021/04/18 10:12:13;;;;;;;20.77;12.15;;;;;;;20.75;36.07;99259.95;4241426;83;28616;-86
2021/04/18 10:18:17;;;;;;;20.32;11.60;;;;;;;21.72;35.22;99251.98;4330321;81;28576;-88
2021/04/18 10:24:47;;;;;;;20.68;10.68;;;;;;;21.43;34.15;99249.70;4338812;81;28579;-92
2021/04/18 10:30:49;;;;;;;19.42;11.35;;;;;;;20.52;35.83;99261.64;4303776;83;28635;-93
2021/04/18 10:36:52;;;;;;;21.65;11.45;;;;;;;20.75;35.20;99249.85;4326321;81;28574;-92
2021/04/18 10:42:55;;;;;;;21.25;10.98;;;;;;;21.29;35.02;99253.75;4298229;81;28610;-90
2021/04/18 10:48:57;;;;;;;20.43;11.80;;;;;;;20.92;35.30;99252.64;4324637;81;28700;-89
2021/04/18 10:55:00;;;;;;;20.75;11.55;;;;;;;19.84;36.56;99256.06;4354616;81;28621;-91
2021/04/18 11:01:02;;;;;;;22.93;12.10;;;;;;;19.81;36.99;99252.53;4335987;81;28584;-92
2021/04/18 11:07:05;;;;;;;19.50;11.33;;;;;;;18.71;38.91;99264.72;4339400;80;28595;-93
2021/04/18 11:13:50;;;;;;;24.85;12.30;;;;;;;20.42;37.26;99253.00;4326085;80;28687;-92
2021/04/18 11:19:53;;;;;;;23.27;12.15;;;;;;;19.76;37.15;99258.30;4334524;81;28658;-90
2021/04/18 11:25:55;;;;;;;21.87;12.35;;;;;;;20.04;37.71;99257.80;4318200;81;28630;-84
2021/04/18 11:31:58;;;;;;;18.42;10.65;;;;;;;20.51;36.60;99256.71;4318715;81;28652;-86
2021/04/18 11:38:00;;;;;;;20.88;12.37;;;;;;;20.73;37.38;99249.34;4342481;80;28592;-87
2021/04/18 11:44:04;;;;;;;21.52;12.50;;;;;;;19.02;38.71;99263.78;4316473;81;28621;-86
2021/04/18 11:50:07;;;;;;;24.55;12.30;;;;;;;19.55;38.06;99269.92;4326644;81;28620;-86
2021/04/18 11:56:10;;;;;;;28.23;13.40;;;;;;;19.48;38.02;99254.47;4336538;80;28567;-87
2021/04/18 12:02:12;;;;;;;27.15;13.60;;;;;;;18.46;39.76;99257.47;4333804;81;28650;-86
2021/04/18 12:08:16;;;;;;;30.82;14.40;;;;;;;19.58;38.84;99254.38;4329784;80;28596;-89
2021/04/18 12:14:18;;;;;;;28.95;14.10;;;;;;;19.50;37.89;99259.08;4303370;80;28633;-92
2021/04/18 12:20:21;;;;;;;36.58;17.70;;;;;;;19.74;37.35;99252.33;4295271;81;28647;-93
2021/04/18 12:26:24;;;;;;;36.70;17.30;;;;;;;18.78;39.76;99258.95;4254702;81;28585;-91
2021/04/18 12:32:26;;;;;;;34.27;17.15;;;;;;;19.39;38.87;99248.79;4331672;82;28610;-91
2021/04/18 12:38:29;;;;;;;28.20;14.25;;;;;;;20.09;38.35;99246.80;4283368;81;28587;-91
2021/04/18 12:44:31;;;;;;;26.60;13.68;;;;;;;20.27;37.07;99247.99;4206989;81;28656;-94
2021/04/18 12:50:34;;;;;;;24.57;13.30;;;;;;;19.79;36.90;99239.98;4235525;83;28646;-93
2021/04/18 12:56:36;;;;;;;23.12;13.43;;;;;;;19.43;37.54;99243.05;4351745;82;28594;-93
2021/04/18 13:02:39;;;;;;;25.77;13.28;;;;;;;19.54;37.99;99250.58;4276713;83;28604;-94
2021/04/18 13:08:42;;;;;;;23.02;12.53;;;;;;;19.12;39.34;99246.54;4259110;82;28634;-89
2021/04/18 13:14:45;;;;;;;27.93;13.98;;;;;;;18.57;39.63;99251.45;4268179;83;28603;-92
2021/04/18 13:20:47;;;;;;;24.40;13.38;;;;;;;18.50;40.06;99258.56;4250441;82;28561;-90
2021/04/18 13:26:49;;;;;;;27.40;14.50;;;;;;;18.55;39.63;99244.91;4320412;80;28674;-91
2021/04/18 13:32:52;;;;;;;31.52;16.20;;;;;;;18.56;40.21;99241.09;4325467;80;28588;-86
2021/04/18 13:38:55;;;;;;;29.52;14.83;;;;;;;18.09;41.51;99241.81;4284939;80;28627;-85
2021/04/18 13:44:57;;;;;;;26.77;14.38;;;;;;;17.78;43.08;99241.84;4323308;80;28602;-86
2021/04/18 13:50:59;;;;;;;28.32;15.20;;;;;;;18.18;41.87;99244.80;4249687;81;28625;-87
2021/04/18 13:57:01;;;;;;;27.42;14.90;;;;;;;18.34;42.72;99246.92;4338201;80;28575;-87
2021/04/18 14:03:05;;;;;;;24.30;14.40;;;;;;;18.33;41.15;99243.38;4228015;81;28564;-87
2021/04/18 14:09:07;;;;;;;27.90;14.90;;;;;;;18.17;42.21;99247.22;4330664;80;28578;-87
2021/04/18 14:15:12;;;;;;;26.33;14.33;;;;;;;18.64;41.55;99241.05;4235147;83;28632;-85
2021/04/18 14:21:16;;;;;;;27.42;15.10;;;;;;;18.15;43.02;99250.77;4254529;81;28569;-88
2021/04/18 14:27:18;;;;;;;24.92;14.18;;;;;;;18.46;42.52;99246.05;4237302;81;28608;-92
2021/04/18 14:33:21;;;;;;;25.80;14.18;;;;;;;17.81;43.54;99247.55;4217808;82;28997;-89
2021/04/18 14:39:35;;;;;;;27.80;15.68;;;;;;;18.56;42.40;99243.02;4208790;82;28608;-89
2021/04/18 14:45:56;;;;;;;26.35;15.00;;;;;;;18.00;43.67;99241.53;4514171;78;143800;-87
2021/04/18 14:52:01;;;;;;;27.13;15.28;;;;;;;18.26;43.27;99251.00;4449942;79;28601;-86
2021/04/18 14:58:04;;;;;;;24.92;14.40;;;;;;;17.93;44.40;99244.55;4422066;80;28593;-89
2021/04/18 15:04:07;;;;;;;27.73;15.53;;;;;;;17.94;43.58;99248.89;4414990;80;28596;-84
2021/04/18 15:10:10;;;;;;;25.70;14.15;;;;;;;17.14;45.67;99247.00;4415707;79;28584;-84
2021/04/18 15:16:12;;;;;;;25.52;14.23;;;;;;;17.93;44.18;99250.52;4421342;79;28687;-86
2021/04/18 15:22:19;;;;;;;24.90;14.23;;;;;;;17.33;45.36;99254.64;4433904;80;28569;-88
2021/04/18 15:28:21;;;;;;;26.60;14.63;;;;;;;17.78;44.69;99256.27;4436723;80;28586;-88
2021/04/18 15:34:23;;;;;;;27.27;14.50;;;;;;;18.04;43.94;99247.28;4436476;80;28611;-86
2021/04/18 15:40:27;;;;;;;22.48;12.70;;;;;;;17.61;44.30;99253.00;4429397;80;28690;-86
2021/04/18 15:46:31;;;;;;;24.60;12.88;;;;;;;17.27;45.19;99245.66;4353588;80;28645;-87
2021/04/18 15:52:33;;;;;;;25.97;13.68;;;;;;;17.96;44.38;99244.52;4358317;81;28594;-88
2021/04/18 15:58:36;;;;;;;23.47;13.32;;;;;;;17.13;45.47;99245.38;4362996;81;28567;-87
2021/04/18 16:04:39;;;;;;;22.37;12.45;;;;;;;17.11;46.12;99246.19;4345702;81;28568;-90
2021/04/18 16:10:41;;;;;;;20.02;11.70;;;;;;;17.39;45.57;99252.20;4340621;81;28595;-87
2021/04/18 16:16:44;;;;;;;21.33;12.65;;;;;;;17.49;44.43;99243.75;4359539;81;28606;-89
2021/04/18 16:22:46;;;;;;;23.50;13.80;;;;;;;17.63;44.58;99250.82;4353490;81;28571;-90
2021/04/18 16:28:49;;;;;;;23.18;13.45;;;;;;;17.60;45.07;99248.66;4323505;81;28642;-89
2021/04/18 16:34:51;;;;;;;23.35;13.05;;;;;;;18.03;44.19;99251.89;4361209;81;28587;-87
2021/04/18 16:40:53;;;;;;;20.60;12.55;;;;;;;17.88;44.37;99260.06;4370455;80;28611;-84
2021/04/18 16:46:55;;;;;;;22.17;13.05;;;;;;;18.18;43.77;99252.95;4428280;79;28566;-86
2021/04/18 16:52:58;;;;;;;24.45;13.32;;;;;;;17.88;44.46;99258.14;4406777;79;28592;-79
2021/04/18 16:59:01;;;;;;;22.73;13.53;;;;;;;17.64;45.36;99263.33;4425629;79;28636;-81
2021/04/18 17:05:05;;;;;;;24.25;13.50;;;;;;;17.24;45.76;99267.13;4399842;79;28589;-85
2021/04/18 17:11:08;;;;;;;22.45;12.85;;;;;;;17.36;45.61;99271.75;4401668;79;28654;-83
2021/04/18 17:17:11;;;;;;;22.40;12.88;;;;;;;17.42;45.59;99278.00;4405114;79;28573;-83
2021/04/18 17:23:14;;;;;;;24.45;13.83;;;;;;;16.93;46.55;99288.23;4393174;80;28617;-83
2021/04/18 17:29:16;;;;;;;27.55;14.55;;;;;;;16.99;46.67;99291.22;4411424;79;28671;-85
2021/04/18 17:35:18;;;;;;;26.17;14.28;;;;;;;17.16;46.50;99297.53;4297745;81;28580;-83
2021/04/18 17:41:20;;;;;;;25.92;14.20;;;;;;;17.06;46.44;99303.77;4278959;81;28648;-84
2021/04/18 17:47:23;;;;;;;24.20;13.35;;;;;;;17.01;46.91;99311.36;4276833;82;28554;-82
2021/04/18 17:53:25;;;;;;;21.07;12.88;;;;;;;16.83;52.47;99311.28;4283078;82;28601;-83
2021/04/18 17:59:27;;;;;;;24.00;13.98;;;;;;;16.90;51.30;99316.45;4308117;82;28578;-82
2021/04/18 18:05:30;;;;;;;22.70;12.35;;;;;;;16.87;51.15;99311.01;4279173;82;28682;-86
2021/04/18 18:11:33;;;;;;;19.05;10.50;;;;;;;16.52;58.20;99309.79;4284399;82;28564;-85
2021/04/18 18:17:35;;;;;;;18.90;10.38;;;;;;;16.29;59.58;99314.52;4296490;81;28639;-89
2021/04/18 18:23:38;;;;;;;21.70;11.95;;;;;;;16.64;56.06;99309.55;4317859;80;28643;-87
2021/04/18 18:29:41;;;;;;;20.12;11.90;;;;;;;16.50;56.86;99311.39;4334017;81;28652;-88
2021/04/18 18:35:44;;;;;;;23.70;14.28;;;;;;;16.60;57.01;99320.12;4334397;81;28583;-89
2021/04/18 18:41:46;;;;;;;21.27;12.45;;;;;;;16.71;52.36;99306.89;4288235;83;28652;-89
2021/04/18 18:47:52;;;;;;;22.00;12.50;;;;;;;16.22;59.52;99320.19;4258680;82;28615;-91
2021/04/18 18:53:55;;;;;;;20.30;11.30;;;;;;;16.32;57.02;99315.37;4250120;83;28574;-90
2021/04/18 18:59:57;;;;;;;23.20;13.62;;;;;;;16.21;60.41;99319.91;4334751;82;28576;-92
2021/04/18 19:06:00;;;;;;;27.90;14.78;;;;;;;16.59;52.41;99315.77;4299111;82;28653;-90
2021/04/18 19:12:02;;;;;;;27.52;14.63;;;;;;;16.44;50.73;99316.51;4313964;82;28606;-88
2021/04/18 19:18:07;;;;;;;25.57;14.45;;;;;;;16.09;52.27;99313.88;4283954;81;28595;-87
2021/04/18 19:24:10;;;;;;;29.75;15.90;;;;;;;16.84;50.33;99306.12;4323144;81;28612;-87
2021/04/18 19:30:17;;;;;;;22.55;12.63;;;;;;;16.58;51.11;99314.14;4303439;82;28604;-86
2021/04/18 19:36:19;;;;;;;24.23;13.70;;;;;;;16.29;57.55;99318.06;4294745;81;28593;-89
2021/04/18 19:42:21;;;;;;;23.27;12.40;;;;;;;15.88;59.81;99313.16;4301148;82;28586;-88
2021/04/18 19:48:24;;;;;;;22.65;12.90;;;;;;;15.85;58.51;99312.86;4288541;82;28546;-91
2021/04/18 19:54:26;;;;;;;28.00;13.80;;;;;;;15.72;59.52;99315.47;4259096;82;28647;-89
2021/04/18 20:00:30;;;;;;;24.07;13.18;;;;;;;15.66;58.31;99306.47;4291885;82;28645;-84
2021/04/18 20:06:32;;;;;;;24.47;12.90;;;;;;;15.74;57.19;99307.36;4297966;82;28566;-88
2021/04/18 20:12:34;;;;;;;23.92;12.55;;;;;;;15.52;60.28;99310.70;4242185;82;28584;-88
2021/04/18 20:18:37;;;;;;;24.37;13.20;;;;;;;15.26;63.33;99299.61;4306459;82;28654;-87
2021/04/18 20:24:41;;;;;;;26.02;13.70;;;;;;;15.59;56.61;99297.73;4314095;82;28588;-86
2021/04/18 20:30:44;;;;;;;25.82;14.25;;;;;;;15.86;57.39;99292.80;4285553;82;28613;-86
2021/04/18 20:36:46;;;;;;;25.97;13.35;;;;;;;17.54;49.88;99285.90;4298830;82;28619;-86
2021/04/18 20:42:48;;;;;;;22.80;12.75;;;;;;;17.72;50.20;99281.81;4254363;82;28660;-88
2021/04/18 20:48:50;;;;;;;20.52;12.07;;;;;;;17.31;51.56;99274.48;4254283;84;28633;-88
2021/04/18 20:54:52;;;;;;;21.62;11.70;;;;;;;17.02;52.93;99280.92;4252779;84;28600;-89
2021/04/18 21:00:54;;;;;;;26.00;12.75;;;;;;;16.94;52.61;99284.43;4253087;84;28577;-89
2021/04/18 21:06:56;;;;;;;25.40;12.75;;;;;;;16.46;54.23;99303.52;4253210;84;28608;-90
2021/04/18 21:12:58;;;;;;;25.92;14.15;;;;;;;16.76;53.42;99295.20;4253226;84;28584;-89
2021/04/18 21:19:01;;;;;;;26.48;13.78;;;;;;;16.91;51.33;99293.09;4233104;84;28737;-89
2021/04/18 21:25:06;;;;;;;25.90;13.03;;;;;;;16.34;54.40;99297.45;4253463;84;28625;-89
2021/04/18 21:31:08;;;;;;;25.32;13.20;;;;;;;16.06;55.40;99284.57;4192090;84;28630;-89
2021/04/18 21:37:10;;;;;;;24.90;13.08;;;;;;;15.94;54.92;99282.04;4253085;84;28601;-86
2021/04/18 21:43:13;;;;;;;23.67;11.93;;;;;;;15.99;54.63;99284.80;4226548;84;28658;-89
2021/04/18 21:49:16;;;;;;;26.27;12.98;;;;;;;15.53;57.28;99287.95;4249513;84;28663;-87
2021/04/18 21:55:18;;;;;;;23.20;13.10;;;;;;;15.43;56.28;99282.71;4251849;83;28588;-87
2021/04/18 22:01:20;;;;;;;26.40;13.15;;;;;;;15.43;55.96;99288.12;4253127;83;28636;-87
2021/04/18 22:07:23;;;;;;;23.90;12.47;;;;;;;14.59;61.63;99289.65;4240804;83;28637;-86
2021/04/18 22:13:25;;;;;;;22.50;11.75;;;;;;;14.78;59.31;99284.75;4224870;84;28613;-87
2021/04/18 22:19:27;;;;;;;23.73;13.10;;;;;;;15.04;57.30;99285.58;4234830;84;28622;-86
2021/04/18 22:25:29;;;;;;;25.50;13.65;;;;;;;15.21;55.87;99286.83;4251245;84;28595;-86
2021/04/18 22:31:32;;;;;;;26.27;12.95;;;;;;;14.88;57.67;99289.45;4232222;83;29166;-87
2021/04/18 22:37:34;;;;;;;33.95;16.37;;;;;;;14.21;61.56;99289.95;4203498;84;28630;-88
2021/04/18 22:43:36;;;;;;;27.80;12.95;;;;;;;14.64;59.83;99278.88;4266869;82;28609;-88
2021/04/18 22:49:39;;;;;;;23.77;13.55;;;;;;;14.42;60.14;99278.05;4291945;82;28627;-85
2021/04/18 22:55:41;;;;;;;27.22;13.70;;;;;;;14.07;62.35;99279.49;4315926;82;28597;-87
2021/04/18 23:01:43;;;;;;;33.55;17.77;;;;;;;14.46;59.29;99272.41;4322114;81;28548;-86
2021/04/18 23:07:46;;;;;;;36.00;18.05;;;;;;;14.42;59.69;99274.00;4322063;82;28604;-85
2021/04/18 23:13:48;;;;;;;34.18;16.97;;;;;;;14.10;61.96;99263.84;4301097;82;28608;-86
2021/04/18 23:19:51;;;;;;;36.95;18.48;;;;;;;14.00;60.96;99258.56;4393162;81;28637;-85
2021/04/18 23:25:53;;;;;;;35.15;17.67;;;;;;;13.80;62.67;99255.05;4295131;81;28570;-86
2021/04/18 23:31:55;;;;;;;31.00;16.55;;;;;;;13.92;61.73;99253.58;4287338;82;28681;-86
2021/04/18 23:37:57;;;;;;;36.53;18.27;;;;;;;13.60;62.70;99251.47;4314170;82;28628;-84
2021/04/18 23:43:59;;;;;;;44.35;21.62;;;;;;;13.80;61.04;99255.84;4293341;82;28601;-84
2021/04/18 23:50:03;;;;;;;37.35;19.27;;;;;;;13.85;61.41;99246.16;4298622;82;28659;-83
2021/04/18 23:56:06;;;;;;;36.45;18.17;;;;;;;13.37;64.09;99240.54;4300423;82;28608;-84
